Time;durP1;ratioP1;P1;durP2;ratioP2;P2;SDS_P1;SDS_P2;PMS_P1;PMS_P2;Temp;Humidity;BMP_temperature;BMP_pressure;BME280_temperature;BME280_humidity;BME280_pressure;Samples;Min_cycle;Max_cycle;Signal;HPM_P1;HPM_P2
2022/04/15 00:01:21;;;;;;;;;;;8.70;99.90;;;;;;5075363;28;19978;-72
2022/04/15 00:03:47;;;;;;;;;;;8.70;99.90;;;;;;5075433;28;19932;-77
2022/04/15 00:06:13;;;;;;;;;;;8.70;99.90;;;;;;5067490;28;19916;-72
2022/04/15 00:08:39;;;;;;;;;;;8.70;99.90;;;;;;5074438;28;20223;-72
2022/04/15 00:11:05;;;;;;;;;;;8.70;99.90;;;;;;5072033;28;19920;-73
2022/04/15 00:13:31;;;;;;;;;;;8.80;99.90;;;;;;5058818;28;19916;-72
2022/04/15 00:15:58;;;;;;;;;;;8.80;99.90;;;;;;5068979;28;19974;-72
2022/04/15 00:18:24;;;;;;;;;;;8.80;99.90;;;;;;5057076;28;20192;-73
2022/04/15 00:20:52;;;;;;;;;;;8.90;99.90;;;;;;5072569;28;19913;-72
2022/04/15 00:23:18;;;;;;;;;;;8.90;99.90;;;;;;5072137;28;19912;-72
2022/04/15 00:25:44;;;;;;;;;;;8.90;99.90;;;;;;5071202;28;19971;-72
2022/04/15 00:28:09;;;;;;;;;;;8.90;99.90;;;;;;5066880;28;19924;-72
2022/04/15 00:30:35;;;;;;;;;;;8.90;99.90;;;;;;5070247;28;20326;-72
2022/04/15 00:33:00;;;;;;;;;;;8.90;99.90;;;;;;5067886;28;19919;-72
2022/04/15 00:35:26;;;;;;;;;;;9.00;99.90;;;;;;5069415;28;19912;-72
2022/04/15 00:37:51;;;;;;;;;;;9.00;99.90;;;;;;5071783;28;19912;-71
2022/04/15 00:40:17;;;;;;;;;;;9.00;99.90;;;;;;5072648;28;20613;-72
2022/04/15 00:42:43;;;;;;;;;;;9.00;99.90;;;;;;5053338;28;19927;-72
2022/04/15 00:45:09;;;;;;;;;;;9.00;99.90;;;;;;5072223;28;20991;-73
2022/04/15 00:47:51;;;;;;;;;;;9.00;99.90;;;;;;5070918;28;19923;-73
2022/04/15 00:50:18;;;;;;;;;;;9.00;99.90;;;;;;5071769;28;19956;-73
2022/04/15 00:52:45;;;;;;;;;;;9.00;99.90;;;;;;5071642;28;20019;-73
2022/04/15 00:55:11;;;;;;;;;;;9.00;99.90;;;;;;5053961;28;19913;-72
2022/04/15 00:57:41;;;;;;;;;;;8.90;99.90;;;;;;5072488;28;23651;-72
2022/04/15 01:00:07;;;;;;;;;;;9.00;99.90;;;;;;5075645;28;19920;-75
2022/04/15 01:02:34;;;;;;;;;;;9.00;99.90;;;;;;5075942;28;19970;-72
2022/04/15 01:05:01;;;;;;;;;;;9.00;99.90;;;;;;5076026;28;19966;-73
2022/04/15 01:07:26;;;;;;;;;;;9.00;99.90;;;;;;5057865;28;19913;-72
2022/04/15 01:09:52;;;;;;;;;;;9.00;99.90;;;;;;5075210;28;19994;-72
2022/04/15 01:12:20;;;;;;;;;;;9.00;99.90;;;;;;5076842;28;19916;-73
2022/04/15 01:14:46;;;;;;;;;;;8.90;99.90;;;;;;5056928;28;20304;-73
2022/04/15 01:17:12;;;;;;;;;;;8.90;99.90;;;;;;5057365;28;19927;-79
2022/04/15 01:19:38;;;;;;;;;;;8.90;99.90;;;;;;5075872;28;19916;-72
2022/04/15 01:22:08;;;;;;;;;;;8.90;99.90;;;;;;5074530;28;19962;-73
2022/04/15 01:24:33;;;;;;;;;;;8.90;99.90;;;;;;5057568;28;19917;-72
2022/04/15 01:26:59;;;;;;;;;;;8.90;99.90;;;;;;5076106;28;19966;-73
2022/04/15 01:29:27;;;;;;;;;;;8.80;99.90;;;;;;5075646;28;19964;-72
2022/04/15 01:31:53;;;;;;;;;;;8.70;99.90;;;;;;5075499;28;19971;-73
2022/04/15 01:34:18;;;;;;;;;;;8.70;99.90;;;;;;5075426;28;20303;-73
2022/04/15 01:36:44;;;;;;;;;;;8.70;99.90;;;;;;5076560;28;19919;-73
2022/04/15 01:39:10;;;;;;;;;;;8.70;99.90;;;;;;5076961;28;19959;-71
2022/04/15 01:41:39;;;;;;;;;;;8.70;99.90;;;;;;5076164;28;20015;-73
2022/04/15 01:44:15;;;;;;;;;;;8.80;99.90;;;;;;5077507;28;19916;-73
2022/04/15 01:46:41;;;;;;;;;;;8.80;99.90;;;;;;5067679;28;19940;-73
2022/04/15 01:49:06;;;;;;;;;;;8.80;99.90;;;;;;5073518;28;19920;-74
2022/04/15 01:51:35;;;;;;;;;;;8.80;99.90;;;;;;5077197;28;20031;-73
2022/04/15 01:54:01;;;;;;;;;;;8.80;99.90;;;;;;5077499;28;19985;-72
2022/04/15 01:56:26;;;;;;;;;;;8.90;99.90;;;;;;5077520;28;20307;-72
2022/04/15 01:58:52;;;;;;;;;;;8.90;99.90;;;;;;5059809;28;19916;-72
2022/04/15 02:01:18;;;;;;;;;;;8.80;99.90;;;;;;5059113;28;19939;-73
2022/04/15 02:03:43;;;;;;;;;;;8.80;99.90;;;;;;5077125;28;19912;-73
2022/04/15 02:06:09;;;;;;;;;;;8.90;99.90;;;;;;5077658;28;19912;-72
2022/04/15 02:08:34;;;;;;;;;;;8.90;99.90;;;;;;5076507;28;20028;-72
2022/04/15 02:11:00;;;;;;;;;;;8.80;99.90;;;;;;5076426;28;19928;-72
2022/04/15 02:13:25;;;;;;;;;;;8.80;99.90;;;;;;5077248;28;19958;-72
2022/04/15 02:15:51;;;;;;;;;;;8.80;99.90;;;;;;5076940;28;20301;-81
2022/04/15 02:18:16;;;;;;;;;;;8.80;99.90;;;;;;5076967;28;19913;-73
2022/04/15 02:20:42;;;;;;;;;;;8.80;99.90;;;;;;5058921;28;19920;-72
2022/04/15 02:23:08;;;;;;;;;;;8.80;99.90;;;;;;5076505;28;20226;-72
2022/04/15 02:25:33;;;;;;;;;;;8.90;99.90;;;;;;5076468;28;19912;-73
2022/04/15 02:27:59;;;;;;;;;;;8.90;99.90;;;;;;5058906;28;19927;-72
2022/04/15 02:30:24;;;;;;;;;;;8.80;99.90;;;;;;5058826;28;20303;-73
2022/04/15 02:32:50;;;;;;;;;;;8.90;99.90;;;;;;5074838;28;19913;-72
2022/04/15 02:35:15;;;;;;;;;;;8.90;99.90;;;;;;5076584;28;19919;-72
2022/04/15 02:37:41;;;;;;;;;;;8.90;99.90;;;;;;5077099;28;19912;-72
2022/04/15 02:40:07;;;;;;;;;;;8.90;99.90;;;;;;5076704;28;19912;-73
2022/04/15 02:42:32;;;;;;;;;;;9.00;99.90;;;;;;5076216;28;20313;-73
2022/04/15 02:44:58;;;;;;;;;;;8.90;99.90;;;;;;5076098;28;20334;-72
2022/04/15 02:47:24;;;;;;;;;;;8.90;99.90;;;;;;5076561;28;19966;-72
2022/04/15 02:49:50;;;;;;;;;;;8.80;99.90;;;;;;5076518;28;19916;-72
2022/04/15 02:52:15;;;;;;;;;;;8.80;99.90;;;;;;5058437;28;20268;-73
2022/04/15 02:54:41;;;;;;;;;;;8.90;99.90;;;;;;5075861;28;19920;-71
2022/04/15 02:57:07;;;;;;;;;;;8.90;99.90;;;;;;5075628;28;19959;-72
2022/04/15 02:59:33;;;;;;;;;;;8.80;99.90;;;;;;5074710;28;19947;-74
2022/04/15 03:01:58;;;;;;;;;;;8.80;99.90;;;;;;5072229;28;19959;-72
2022/04/15 03:04:24;;;;;;;;;;;8.90;99.90;;;;;;5074732;28;19912;-72
2022/04/15 03:06:49;;;;;;;;;;;8.80;99.90;;;;;;5056189;28;19978;-72
2022/04/15 03:09:15;;;;;;;;;;;8.80;99.90;;;;;;5074131;28;19924;-72
2022/04/15 03:11:40;;;;;;;;;;;8.80;99.90;;;;;;5074872;28;20288;-72
2022/04/15 03:14:06;;;;;;;;;;;8.70;99.90;;;;;;5074576;28;19926;-72
2022/04/15 03:16:32;;;;;;;;;;;8.70;99.90;;;;;;5072556;28;20006;-72
2022/04/15 03:18:57;;;;;;;;;;;8.60;99.90;;;;;;5074603;28;19920;-72
2022/04/15 03:21:23;;;;;;;;;;;8.70;99.90;;;;;;5039797;28;19924;-72
2022/04/15 03:23:48;;;;;;;;;;;8.60;99.90;;;;;;5074245;28;19970;-72
2022/04/15 03:26:14;;;;;;;;;;;8.60;99.90;;;;;;5056642;28;20459;-72
2022/04/15 03:28:40;;;;;;;;;;;8.60;99.90;;;;;;5074123;28;20317;-72
2022/04/15 03:31:05;;;;;;;;;;;8.60;99.90;;;;;;5074584;28;19912;-72
2022/04/15 03:33:31;;;;;;;;;;;8.50;99.90;;;;;;5072681;28;19922;-72
2022/04/15 03:35:56;;;;;;;;;;;8.50;99.90;;;;;;5072148;28;19920;-73
2022/04/15 03:38:22;;;;;;;;;;;8.50;99.90;;;;;;5055988;28;19973;-72
2022/04/15 03:40:48;;;;;;;;;;;8.60;99.90;;;;;;5073275;28;19916;-72
2022/04/15 03:43:13;;;;;;;;;;;8.60;99.90;;;;;;5074438;28;19974;-72
2022/04/15 03:45:39;;;;;;;;;;;8.60;99.90;;;;;;5056158;28;19920;-72
2022/04/15 03:48:05;;;;;;;;;;;8.60;99.90;;;;;;5055697;28;19924;-73
2022/04/15 03:50:30;;;;;;;;;;;8.60;99.90;;;;;;5073958;28;19921;-72
2022/04/15 03:52:56;;;;;;;;;;;8.60;99.90;;;;;;5073847;28;19912;-73
2022/04/15 03:55:23;;;;;;;;;;;8.50;99.90;;;;;;5072923;28;19916;-72
2022/04/15 03:57:48;;;;;;;;;;;8.50;99.90;;;;;;5056175;28;19916;-72
2022/04/15 04:00:18;;;;;;;;;;;8.50;99.90;;;;;;5056427;28;19920;-73
2022/04/15 04:02:48;;;;;;;;;;;8.60;99.90;;;;;;5055980;28;19916;-72
2022/04/15 04:05:13;;;;;;;;;;;8.50;99.90;;;;;;5074815;28;19999;-72
2022/04/15 04:07:40;;;;;;;;;;;8.50;99.90;;;;;;5074052;28;19921;-72
2022/04/15 04:10:05;;;;;;;;;;;8.50;99.90;;;;;;5074531;28;19924;-72
2022/04/15 04:12:33;;;;;;;;;;;8.50;99.90;;;;;;5072534;28;19912;-72
2022/04/15 04:15:02;;;;;;;;;;;8.40;99.90;;;;;;5057353;28;19917;-72
2022/04/15 04:17:28;;;;;;;;;;;8.50;99.90;;;;;;5056949;28;19916;-73
2022/04/15 04:19:54;;;;;;;;;;;8.40;99.90;;;;;;5057207;28;19923;-72
2022/04/15 04:22:19;;;;;;;;;;;8.40;99.90;;;;;;5075581;28;20206;-72
2022/04/15 04:24:45;;;;;;;;;;;8.40;99.90;;;;;;5075095;28;19916;-72
2022/04/15 04:27:11;;;;;;;;;;;8.50;99.90;;;;;;5075374;28;19912;-72
2022/04/15 04:29:36;;;;;;;;;;;8.50;99.90;;;;;;5075004;28;19920;-72
2022/04/15 04:32:02;;;;;;;;;;;8.50;99.90;;;;;;5078189;28;19913;-72
2022/04/15 04:34:27;;;;;;;;;;;8.50;99.90;;;;;;5079060;28;19916;-72
2022/04/15 04:36:53;;;;;;;;;;;8.50;99.90;;;;;;5078097;28;19974;-72
2022/04/15 04:39:18;;;;;;;;;;;8.50;99.90;;;;;;5077571;28;20015;-72
2022/04/15 04:41:44;;;;;;;;;;;8.50;99.90;;;;;;5078886;28;20338;-72
2022/04/15 04:44:09;;;;;;;;;;;8.50;99.90;;;;;;5060986;28;19912;-73
2022/04/15 04:46:35;;;;;;;;;;;8.50;99.90;;;;;;5079056;28;20269;-73
2022/04/15 04:49:01;;;;;;;;;;;8.50;99.90;;;;;;5077825;28;20450;-72
2022/04/15 04:51:27;;;;;;;;;;;8.50;99.90;;;;;;5060646;28;20015;-71
2022/04/15 04:53:52;;;;;;;;;;;8.50;99.90;;;;;;5078642;28;19917;-71
2022/04/15 04:56:18;;;;;;;;;;;8.50;99.90;;;;;;5078165;28;19912;-72
2022/04/15 04:58:43;;;;;;;;;;;8.60;99.90;;;;;;5059729;28;19912;-72
2022/04/15 05:01:09;;;;;;;;;;;8.60;99.90;;;;;;5060414;28;20317;-73
2022/04/15 05:03:34;;;;;;;;;;;8.70;99.90;;;;;;5078391;28;20247;-73
2022/04/15 05:06:00;;;;;;;;;;;8.70;99.90;;;;;;5060220;28;19913;-72
2022/04/15 05:08:25;;;;;;;;;;;8.80;99.90;;;;;;5077752;28;19922;-71
2022/04/15 05:10:51;;;;;;;;;;;8.70;99.90;;;;;;5077834;28;20003;-75
2022/04/15 05:13:16;;;;;;;;;;;8.70;99.90;;;;;;5078207;28;19958;-72
2022/04/15 05:15:42;;;;;;;;;;;8.70;99.90;;;;;;5078360;28;19924;-72
2022/04/15 05:18:08;;;;;;;;;;;8.80;99.90;;;;;;5077720;28;19962;-72
2022/04/15 05:20:34;;;;;;;;;;;8.80;99.90;;;;;;5077861;28;19916;-72
2022/04/15 05:23:00;;;;;;;;;;;8.80;99.90;;;;;;5060094;28;19912;-72
2022/04/15 05:25:25;;;;;;;;;;;8.80;99.90;;;;;;5077717;28;20327;-72
2022/04/15 05:27:52;;;;;;;;;;;8.80;99.90;;;;;;5060651;28;19916;-72
2022/04/15 05:30:18;;;;;;;;;;;8.80;99.90;;;;;;5077779;28;19999;-72
2022/04/15 05:32:43;;;;;;;;;;;8.90;99.90;;;;;;5059439;28;20012;-72
2022/04/15 05:35:09;;;;;;;;;;;9.00;99.90;;;;;;5076160;28;19979;-72
2022/04/15 05:37:35;;;;;;;;;;;8.90;99.90;;;;;;5059468;28;19912;-73
2022/04/15 05:40:01;;;;;;;;;;;8.90;99.90;;;;;;5076939;28;20303;-73
2022/04/15 05:42:27;;;;;;;;;;;8.90;99.90;;;;;;5075102;28;19913;-72
2022/04/15 05:44:53;;;;;;;;;;;8.90;99.90;;;;;;5077343;28;20226;-73
2022/04/15 05:47:18;;;;;;;;;;;8.90;99.90;;;;;;5077668;28;20061;-73
2022/04/15 05:49:44;;;;;;;;;;;9.00;99.90;;;;;;5077622;28;20242;-72
2022/04/15 05:52:09;;;;;;;;;;;8.90;99.90;;;;;;5077092;28;19912;-72
2022/04/15 05:54:35;;;;;;;;;;;8.90;99.90;;;;;;5077409;28;20223;-73
2022/04/15 05:57:00;;;;;;;;;;;9.00;99.90;;;;;;5076461;28;20223;-72
2022/04/15 05:59:26;;;;;;;;;;;9.10;99.90;;;;;;5077340;28;19919;-71
2022/04/15 06:01:51;;;;;;;;;;;9.10;99.90;;;;;;5076603;28;19962;-72
2022/04/15 06:04:17;;;;;;;;;;;9.10;99.90;;;;;;5076816;28;19920;-71
2022/04/15 06:06:43;;;;;;;;;;;9.20;99.90;;;;;;5077004;28;19959;-72
2022/04/15 06:09:09;;;;;;;;;;;9.20;99.90;;;;;;5076342;28;19970;-73
2022/04/15 06:11:34;;;;;;;;;;;9.30;99.90;;;;;;5075211;28;19982;-73
2022/04/15 06:14:03;;;;;;;;;;;9.40;99.90;;;;;;5070470;28;19966;-80
2022/04/15 06:16:32;;;;;;;;;;;9.40;99.90;;;;;;5074868;28;20537;-73
2022/04/15 06:19:00;;;;;;;;;;;9.20;99.90;;;;;;5054414;28;19939;-72
2022/04/15 06:21:26;;;;;;;;;;;9.20;99.90;;;;;;5067740;28;20254;-73
2022/04/15 06:23:51;;;;;;;;;;;9.20;99.90;;;;;;5076340;28;19934;-73
2022/04/15 06:26:17;;;;;;;;;;;9.30;99.90;;;;;;5074890;28;20306;-73
2022/04/15 06:28:42;;;;;;;;;;;9.30;99.90;;;;;;5055460;28;19924;-73
2022/04/15 06:31:08;;;;;;;;;;;9.30;99.90;;;;;;5075382;28;19991;-73
2022/04/15 06:33:34;;;;;;;;;;;9.30;99.90;;;;;;5057312;28;19947;-73
2022/04/15 06:36:00;;;;;;;;;;;9.40;99.90;;;;;;5074726;28;19920;-72
2022/04/15 06:38:26;;;;;;;;;;;9.50;99.90;;;;;;5074823;28;20333;-73
2022/04/15 06:40:51;;;;;;;;;;;9.50;99.90;;;;;;5075831;28;20003;-72
2022/04/15 06:43:17;;;;;;;;;;;9.50;99.90;;;;;;5073095;28;20574;-73
2022/04/15 06:45:42;;;;;;;;;;;9.50;99.90;;;;;;5057312;28;19923;-78
2022/04/15 06:48:08;;;;;;;;;;;9.50;99.90;;;;;;5075895;28;19930;-72
2022/04/15 06:50:33;;;;;;;;;;;9.50;99.90;;;;;;5074821;28;19956;-73
2022/04/15 06:52:59;;;;;;;;;;;9.40;99.90;;;;;;5071836;28;20338;-73
2022/04/15 06:55:24;;;;;;;;;;;9.50;99.90;;;;;;5075274;28;19921;-73
2022/04/15 06:57:50;;;;;;;;;;;9.50;99.90;;;;;;5073031;28;19912;-72
2022/04/15 07:00:16;;;;;;;;;;;9.70;99.90;;;;;;5073352;28;19920;-73
2022/04/15 07:02:41;;;;;;;;;;;9.80;99.90;;;;;;5075066;28;19919;-79
2022/04/15 07:05:09;;;;;;;;;;;9.70;99.90;;;;;;5074667;28;19932;-73
2022/04/15 07:07:38;;;;;;;;;;;9.70;99.90;;;;;;5074707;28;19987;-73
2022/04/15 07:10:04;;;;;;;;;;;9.70;99.90;;;;;;5072711;28;19928;-73
2022/04/15 07:12:30;;;;;;;;;;;9.70;99.90;;;;;;5073931;28;20750;-73
2022/04/15 07:14:57;;;;;;;;;;;9.70;99.90;;;;;;5056575;28;19923;-72
2022/04/15 07:17:23;;;;;;;;;;;9.70;99.90;;;;;;5076174;28;19921;-73
2022/04/15 07:19:48;;;;;;;;;;;9.80;99.90;;;;;;5074740;28;19995;-73
2022/04/15 07:22:18;;;;;;;;;;;9.80;99.90;;;;;;5073844;28;19920;-73
2022/04/15 07:24:44;;;;;;;;;;;10.00;99.90;;;;;;5074711;28;19916;-72
2022/04/15 07:27:09;;;;;;;;;;;9.90;99.90;;;;;;5055699;28;19916;-72
2022/04/15 07:29:35;;;;;;;;;;;9.90;99.90;;;;;;5075888;28;19942;-74
2022/04/15 07:32:00;;;;;;;;;;;10.10;99.90;;;;;;5056936;28;19955;-73
2022/04/15 07:34:26;;;;;;;;;;;10.30;99.90;;;;;;5073955;28;19916;-73
2022/04/15 07:36:55;;;;;;;;;;;10.30;99.90;;;;;;5073642;28;19919;-73
2022/04/15 07:39:21;;;;;;;;;;;10.50;99.90;;;;;;5055473;28;19912;-72
2022/04/15 07:41:47;;;;;;;;;;;10.50;99.90;;;;;;5074234;28;19916;-73
2022/04/15 07:44:14;;;;;;;;;;;10.40;99.90;;;;;;5073574;28;19925;-73
2022/04/15 07:46:40;;;;;;;;;;;10.30;99.90;;;;;;5075149;28;19948;-76
2022/04/15 07:49:06;;;;;;;;;;;10.20;99.90;;;;;;5069552;28;19925;-73
2022/04/15 07:51:32;;;;;;;;;;;10.20;99.90;;;;;;5071899;28;19923;-73
2022/04/15 07:53:57;;;;;;;;;;;10.40;99.90;;;;;;5074284;28;19932;-73
2022/04/15 07:56:23;;;;;;;;;;;10.40;99.90;;;;;;5073758;28;20213;-74
2022/04/15 07:58:50;;;;;;;;;;;10.30;99.90;;;;;;5072412;28;19913;-73
2022/04/15 08:01:19;;;;;;;;;;;10.20;99.90;;;;;;5055493;28;19963;-72
2022/04/15 08:03:46;;;;;;;;;;;10.00;99.90;;;;;;5055291;28;20285;-73
2022/04/15 08:06:12;;;;;;;;;;;10.10;99.90;;;;;;5072320;28;19920;-73
2022/04/15 08:08:38;;;;;;;;;;;10.10;99.90;;;;;;5073317;28;19928;-73
2022/04/15 08:11:04;;;;;;;;;;;10.00;99.90;;;;;;5073712;28;19920;-73
2022/04/15 08:13:30;;;;;;;;;;;10.10;99.90;;;;;;5052900;28;19930;-72
2022/04/15 08:15:56;;;;;;;;;;;10.10;99.90;;;;;;5056060;28;19912;-73
2022/04/15 08:18:22;;;;;;;;;;;10.00;99.90;;;;;;5074681;28;19928;-73
2022/04/15 08:20:48;;;;;;;;;;;10.00;99.90;;;;;;5068056;28;19916;-73
2022/04/15 08:23:13;;;;;;;;;;;10.00;99.90;;;;;;5072511;28;19917;-73
2022/04/15 08:25:39;;;;;;;;;;;10.10;99.90;;;;;;5078820;28;19916;-73
2022/04/15 08:28:05;;;;;;;;;;;10.00;99.90;;;;;;5074367;28;19912;-73
2022/04/15 08:30:33;;;;;;;;;;;10.00;99.90;;;;;;5066208;28;19928;-72
2022/04/15 08:32:59;;;;;;;;;;;10.20;99.90;;;;;;5045172;28;19912;-73
2022/04/15 08:35:24;;;;;;;;;;;10.20;99.90;;;;;;5042872;28;20219;-72
2022/04/15 08:37:50;;;;;;;;;;;10.00;99.90;;;;;;5061635;28;19920;-78
2022/04/15 08:40:15;;;;;;;;;;;10.10;99.90;;;;;;5070215;28;19912;-73
2022/04/15 08:42:42;;;;;;;;;;;10.10;99.90;;;;;;5072126;28;19913;-73
2022/04/15 08:45:09;;;;;;;;;;;10.00;99.90;;;;;;5072179;28;19951;-74
2022/04/15 08:47:37;;;;;;;;;;;10.00;99.90;;;;;;5072365;28;20364;-72
2022/04/15 08:50:04;;;;;;;;;;;10.00;99.90;;;;;;5073268;28;19920;-72
2022/04/15 08:52:29;;;;;;;;;;;10.00;99.90;;;;;;5073361;28;19928;-73
2022/04/15 08:54:55;;;;;;;;;;;10.20;99.90;;;;;;5075589;28;19912;-74
2022/04/15 08:57:21;;;;;;;;;;;10.20;99.90;;;;;;5055652;28;19913;-73
2022/04/15 08:59:47;;;;;;;;;;;10.20;99.90;;;;;;5054925;28;19916;-72
2022/04/15 09:02:27;;;;;;;;;;;10.30;99.90;;;;;;5073375;28;20317;-73
2022/04/15 09:05:15;;;;;;;;;;;10.30;99.90;;;;;;5056066;28;19920;-73
2022/04/15 09:07:41;;;;;;;;;;;10.50;99.90;;;;;;5073371;28;19948;-73
2022/04/15 09:10:07;;;;;;;;;;;10.70;99.90;;;;;;5073492;28;19971;-72
2022/04/15 09:12:36;;;;;;;;;;;10.80;99.90;;;;;;5056203;28;19917;-72
2022/04/15 09:15:07;;;;;;;;;;;10.80;99.90;;;;;;5073542;28;19912;-73
2022/04/15 09:17:36;;;;;;;;;;;10.80;99.90;;;;;;5074967;28;19916;-73
2022/04/15 09:20:05;;;;;;;;;;;10.90;99.90;;;;;;5059210;28;20011;-73
2022/04/15 09:22:31;;;;;;;;;;;10.90;99.90;;;;;;5077524;28;19916;-72
2022/04/15 09:24:58;;;;;;;;;;;11.00;99.90;;;;;;5076715;28;19919;-73
2022/04/15 09:27:23;;;;;;;;;;;11.10;99.90;;;;;;5058730;28;19923;-72
2022/04/15 09:29:50;;;;;;;;;;;11.00;99.90;;;;;;5075218;28;19920;-72
2022/04/15 09:32:16;;;;;;;;;;;11.00;99.90;;;;;;5076840;28;19927;-72
2022/04/15 09:34:53;;;;;;;;;;;11.00;99.90;;;;;;5075896;28;19924;-73
2022/04/15 09:37:19;;;;;;;;;;;11.00;99.90;;;;;;5075443;28;19978;-73
2022/04/15 09:40:05;;;;;;;;;;;11.00;99.90;;;;;;5075920;28;20287;-73
2022/04/15 09:42:31;;;;;;;;;;;11.00;99.90;;;;;;5072058;28;20257;-73
2022/04/15 09:45:00;;;;;;;;;;;11.00;99.90;;;;;;5071301;28;19921;-72
2022/04/15 09:47:27;;;;;;;;;;;11.00;99.90;;;;;;5040225;28;19916;-73
2022/04/15 09:49:53;;;;;;;;;;;11.20;99.90;;;;;;5071458;28;20204;-73
2022/04/15 09:52:26;;;;;;;;;;;11.30;99.90;;;;;;5076867;28;20188;-72
2022/04/15 09:54:56;;;;;;;;;;;11.40;99.90;;;;;;5076415;28;19926;-73
2022/04/15 09:57:23;;;;;;;;;;;11.50;99.90;;;;;;5072004;28;20311;-72
2022/04/15 09:59:49;;;;;;;;;;;11.30;99.90;;;;;;5057820;28;19908;-72
2022/04/15 10:02:14;;;;;;;;;;;11.10;99.90;;;;;;5076133;28;19909;-73
2022/04/15 10:04:41;;;;;;;;;;;11.00;99.90;;;;;;5077538;28;19948;-73
2022/04/15 10:07:08;;;;;;;;;;;10.90;99.90;;;;;;5078242;28;19971;-73
2022/04/15 10:09:37;;;;;;;;;;;10.90;99.90;;;;;;5077034;28;19924;-74
2022/04/15 10:12:03;;;;;;;;;;;10.90;99.90;;;;;;5077212;28;20501;-72
2022/04/15 10:14:30;;;;;;;;;;;10.90;99.90;;;;;;5076552;28;19917;-72
2022/04/15 10:16:57;;;;;;;;;;;11.10;99.90;;;;;;5075692;28;19913;-78
2022/04/15 10:19:23;;;;;;;;;;;11.10;99.90;;;;;;5072671;28;19922;-73
2022/04/15 10:21:50;;;;;;;;;;;11.10;99.90;;;;;;5054726;28;19917;-72
2022/04/15 10:24:16;;;;;;;;;;;11.10;99.90;;;;;;5049963;28;19955;-73
2022/04/15 10:26:43;;;;;;;;;;;11.10;99.90;;;;;;5053458;28;19917;-72
2022/04/15 10:29:12;;;;;;;;;;;11.10;99.90;;;;;;5067672;28;19921;-72
2022/04/15 10:31:40;;;;;;;;;;;11.20;99.90;;;;;;5065971;28;19917;-72
2022/04/15 10:34:13;;;;;;;;;;;11.20;99.90;;;;;;5055031;28;19958;-71
2022/04/15 10:36:43;;;;;;;;;;;11.20;99.90;;;;;;5045789;28;20349;-72
2022/04/15 10:39:11;;;;;;;;;;;11.20;99.90;;;;;;5067203;28;19932;-72
2022/04/15 10:41:42;;;;;;;;;;;11.30;99.90;;;;;;5067298;28;19950;-73
2022/04/15 10:44:12;;;;;;;;;;;11.30;99.90;;;;;;5067238;28;19924;-72
2022/04/15 10:46:37;;;;;;;;;;;11.30;99.90;;;;;;5067077;28;19916;-73
2022/04/15 10:49:18;;;;;;;;;;;11.40;99.90;;;;;;5063518;28;19924;-73
2022/04/15 10:51:44;;;;;;;;;;;11.40;99.90;;;;;;5067423;28;19921;-71
2022/04/15 10:54:28;;;;;;;;;;;11.30;99.90;;;;;;5047862;28;19920;-78
2022/04/15 10:57:21;;;;;;;;;;;11.20;99.90;;;;;;5066668;28;19923;-72
2022/04/15 11:02:38;;;;;;;;;;;11.10;99.90;;;;;;5062231;28;19927;-72
2022/04/15 11:05:05;;;;;;;;;;;11.00;99.90;;;;;;5065827;28;19923;-73
2022/04/15 11:07:41;;;;;;;;;;;10.90;99.90;;;;;;5045470;28;19970;-73
2022/04/15 11:10:14;;;;;;;;;;;10.90;99.90;;;;;;5063955;28;19935;-73
2022/04/15 11:12:42;;;;;;;;;;;10.90;99.90;;;;;;5064874;28;19966;-73
2022/04/15 11:15:08;;;;;;;;;;;10.80;99.90;;;;;;5066343;28;20490;-72
2022/04/15 11:17:44;;;;;;;;;;;10.90;99.90;;;;;;5060845;28;19917;-72
2022/04/15 11:20:10;;;;;;;;;;;11.00;99.90;;;;;;5063643;28;19938;-72
2022/04/15 11:22:39;;;;;;;;;;;10.80;99.90;;;;;;5065823;28;20315;-72
2022/04/15 11:25:07;;;;;;;;;;;10.90;99.90;;;;;;5052092;28;19912;-73
2022/04/15 11:27:34;;;;;;;;;;;10.90;99.90;;;;;;5069985;28;20312;-77
2022/04/15 11:30:04;;;;;;;;;;;11.00;99.90;;;;;;5070574;28;19932;-74
2022/04/15 11:32:30;;;;;;;;;;;11.00;99.90;;;;;;5068403;28;19923;-72
2022/04/15 11:35:01;;;;;;;;;;;10.80;99.90;;;;;;5069958;28;19916;-72
2022/04/15 11:37:27;;;;;;;;;;;10.70;99.90;;;;;;5069897;28;19916;-73
2022/04/15 11:39:53;;;;;;;;;;;10.70;99.90;;;;;;5068836;28;19928;-72
2022/04/15 11:42:20;;;;;;;;;;;10.60;99.90;;;;;;5071626;28;20361;-72
2022/04/15 11:44:45;;;;;;;;;;;10.60;99.90;;;;;;5072277;28;20315;-72
2022/04/15 11:47:19;;;;;;;;;;;10.70;99.90;;;;;;5082057;28;19930;-73
2022/04/15 11:49:45;;;;;;;;;;;10.60;99.90;;;;;;5083967;28;19928;-73
2022/04/15 11:52:11;;;;;;;;;;;10.70;99.90;;;;;;5072751;28;19970;-72
2022/04/15 11:54:40;;;;;;;;;;;10.70;99.90;;;;;;5053706;28;19916;-72
2022/04/15 11:57:06;;;;;;;;;;;10.70;99.90;;;;;;5069692;28;19963;-74
2022/04/15 11:59:41;;;;;;;;;;;10.80;99.90;;;;;;5060673;28;19952;-72
2022/04/15 12:02:25;;;;;;;;;;;10.70;99.90;;;;;;5053676;28;19927;-72
2022/04/15 12:04:57;;;;;;;;;;;10.60;99.90;;;;;;5071185;28;20014;-74
2022/04/15 12:07:23;;;;;;;;;;;10.40;99.90;;;;;;5051232;28;19942;-73
2022/04/15 12:09:50;;;;;;;;;;;10.50;99.90;;;;;;5069592;28;19924;-74
2022/04/15 12:12:15;;;;;;;;;;;10.50;99.90;;;;;;5070984;28;19942;-73
2022/04/15 12:14:42;;;;;;;;;;;10.50;99.90;;;;;;5070833;28;19916;-72
2022/04/15 12:17:08;;;;;;;;;;;10.50;99.90;;;;;;5052951;28;19970;-73
2022/04/15 12:19:34;;;;;;;;;;;10.60;99.90;;;;;;5052029;28;19921;-73
2022/04/15 12:22:03;;;;;;;;;;;10.70;99.90;;;;;;5070806;28;19923;-72
2022/04/15 12:24:31;;;;;;;;;;;10.80;99.90;;;;;;5067967;28;19932;-72
2022/04/15 12:27:00;;;;;;;;;;;10.70;99.90;;;;;;5065722;28;19916;-71
2022/04/15 12:32:13;;;;;;;;;;;10.70;99.90;;;;;;5067215;28;19938;-74
2022/04/15 12:34:39;;;;;;;;;;;10.90;99.90;;;;;;5069833;28;19923;-77
2022/04/15 12:37:04;;;;;;;;;;;10.90;99.90;;;;;;5052296;28;19916;-74
2022/04/15 12:39:30;;;;;;;;;;;10.80;99.90;;;;;;5052566;28;19916;-73
2022/04/15 12:41:56;;;;;;;;;;;10.80;99.90;;;;;;5047413;28;19924;-77
2022/04/15 12:44:31;;;;;;;;;;;10.70;99.90;;;;;;5069216;28;20019;-79
2022/04/15 12:47:00;;;;;;;;;;;10.60;99.90;;;;;;5069071;28;20211;-72
2022/04/15 12:49:29;;;;;;;;;;;10.60;99.90;;;;;;5070698;28;19971;-73
2022/04/15 12:52:05;;;;;;;;;;;10.50;99.90;;;;;;5052997;28;19974;-74
2022/04/15 12:54:31;;;;;;;;;;;10.70;99.90;;;;;;5071981;28;19939;-78
2022/04/15 12:56:58;;;;;;;;;;;10.80;99.90;;;;;;5055218;28;20402;-76
2022/04/15 12:59:24;;;;;;;;;;;10.80;99.90;;;;;;5070309;28;20011;-74
2022/04/15 13:01:49;;;;;;;;;;;10.70;99.90;;;;;;5070795;28;20275;-73
2022/04/15 13:04:18;;;;;;;;;;;10.70;99.90;;;;;;5073704;28;19920;-73
2022/04/15 13:06:44;;;;;;;;;;;10.80;99.90;;;;;;5069645;28;19920;-74
2022/04/15 13:09:09;;;;;;;;;;;10.80;99.90;;;;;;5073270;28;19926;-78
2022/04/15 13:11:35;;;;;;;;;;;10.80;99.90;;;;;;5070374;28;19924;-73
2022/04/15 13:14:01;;;;;;;;;;;10.90;99.90;;;;;;5055649;28;19923;-74
2022/04/15 13:16:27;;;;;;;;;;;11.00;99.90;;;;;;5072889;28;19931;-74
2022/04/15 13:18:54;;;;;;;;;;;11.30;99.90;;;;;;5057919;28;19925;-76
2022/04/15 13:21:20;;;;;;;;;;;11.60;99.90;;;;;;5055875;28;19931;-75
2022/04/15 13:23:46;;;;;;;;;;;11.80;99.90;;;;;;5073582;28;19962;-76
2022/04/15 13:26:12;;;;;;;;;;;12.00;99.90;;;;;;5055916;28;19986;-77
2022/04/15 13:28:39;;;;;;;;;;;11.60;99.90;;;;;;5074163;28;19924;-75
2022/04/15 13:31:05;;;;;;;;;;;11.40;99.90;;;;;;5072642;28;19992;-75
2022/04/15 13:33:32;;;;;;;;;;;11.20;99.90;;;;;;5073140;28;20356;-73
2022/04/15 13:35:57;;;;;;;;;;;11.10;99.90;;;;;;5055203;28;19921;-74
2022/04/15 13:38:23;;;;;;;;;;;11.10;99.90;;;;;;5073477;28;19971;-76
2022/04/15 13:40:48;;;;;;;;;;;11.10;99.90;;;;;;5055431;28;20570;-74
2022/04/15 13:43:14;;;;;;;;;;;11.30;99.90;;;;;;5072000;28;19917;-74
2022/04/15 13:45:40;;;;;;;;;;;11.10;99.90;;;;;;5066475;28;19922;-75
2022/04/15 13:48:05;;;;;;;;;;;11.30;99.90;;;;;;5072191;28;19946;-74
2022/04/15 13:50:31;;;;;;;;;;;11.50;99.90;;;;;;5072448;28;20251;-74
2022/04/15 13:58:45;;;;;;;;;;;11.50;99.90;;;;;;5030875;28;20197;-77
2022/04/15 14:01:23;;;;;;;;;;;11.40;99.90;;;;;;5029150;28;19969;-74
2022/04/15 14:03:50;;;;;;;;;;;11.30;99.90;;;;;;5047993;28;19916;-74
2022/04/15 14:06:15;;;;;;;;;;;11.10;99.90;;;;;;5051774;28;20008;-74
2022/04/15 14:08:41;;;;;;;;;;;11.10;99.90;;;;;;5071822;28;20402;-74
2022/04/15 14:11:07;;;;;;;;;;;11.00;99.90;;;;;;5053477;28;19934;-75
2022/04/15 14:13:34;;;;;;;;;;;10.90;99.90;;;;;;5050669;28;19940;-75
2022/04/15 14:16:00;;;;;;;;;;;10.70;99.90;;;;;;5053347;28;19913;-74
2022/04/15 14:18:25;;;;;;;;;;;10.60;99.90;;;;;;5069245;28;19988;-74
2022/04/15 14:20:51;;;;;;;;;;;10.60;99.90;;;;;;5069713;28;19920;-74
2022/04/15 14:23:17;;;;;;;;;;;10.50;99.90;;;;;;5071919;28;19917;-75
2022/04/15 14:25:43;;;;;;;;;;;10.60;99.90;;;;;;5055549;28;19923;-77
2022/04/15 14:28:09;;;;;;;;;;;10.50;99.90;;;;;;5070578;28;20537;-74
2022/04/15 14:30:34;;;;;;;;;;;10.60;99.90;;;;;;5070910;28;19917;-74
2022/04/15 14:33:00;;;;;;;;;;;10.60;99.90;;;;;;5069596;28;19922;-74